Terminal Aerodrome Forecast
Issued by NWS Wichita, KS

Home | Current Version | Previous Version | Text Only | Print | Product List | Glossary On
Versions: 1 2 3 4 5 6 7 8 9 10 11 12 13 14
000
FTUS43 KICT 271720
TAFICT
TAF
KICT 271720Z 2718/2818 06015G25KT P6SM BKN050 OVC250
     FM272200 27011KT P6SM SCT060
     FM280000 33014KT P6SM SCT045
     FM280300 35015KT P6SM BKN050
     FM280800 34013KT P6SM SCT060
     FM281300 33008KT P6SM FEW150=

USA.gov is the U.S. government's official web portal to all federal, state and local government web resources and services.